createdAt,value
2023-01-22T00:03:55.053Z,1.83
2023-01-22T00:08:07.429Z,1.85
2023-01-22T00:12:19.753Z,1.80
2023-01-22T00:16:32.135Z,1.80
2023-01-22T00:20:48.731Z,2.28
2023-01-22T00:25:01.015Z,2.17
2023-01-22T00:29:13.548Z,2.70
2023-01-22T00:33:26.038Z,2.33
2023-01-22T00:37:38.549Z,2.63
2023-01-22T00:41:51.057Z,2.60
2023-01-22T00:46:03.450Z,2.72
2023-01-22T00:50:16.113Z,2.88
2023-01-22T00:54:30.141Z,3.10
2023-01-22T00:58:42.907Z,3.55
2023-01-22T01:03:14.546Z,3.47
2023-01-22T01:07:27.415Z,3.33
2023-01-22T01:11:41.681Z,2.80
2023-01-22T01:16:06.313Z,2.58
2023-01-22T01:20:18.941Z,2.60
2023-01-22T01:24:32.534Z,2.83
2023-01-22T01:28:46.043Z,2.38
2023-01-22T01:33:01.579Z,2.33
2023-01-22T01:37:13.942Z,2.10
2023-01-22T01:41:27.534Z,2.40
2023-01-22T01:45:40.083Z,2.40
2023-01-22T01:49:54.113Z,2.67
2023-01-22T01:54:08.231Z,2.47
2023-01-22T01:58:24.114Z,2.13
2023-01-22T02:02:38.069Z,2.50
2023-01-22T02:06:50.432Z,2.40
2023-01-22T02:11:02.849Z,2.10
2023-01-22T02:15:15.329Z,1.95
2023-01-22T02:19:36.796Z,2.05
2023-01-22T02:23:49.709Z,2.10
2023-01-22T02:28:02.175Z,1.70
2023-01-22T02:32:14.750Z,1.88
2023-01-22T02:36:27.985Z,2.03
2023-01-22T02:40:49.547Z,1.73
2023-01-22T02:45:05.275Z,1.48
2023-01-22T02:49:18.916Z,1.88
2023-01-22T02:53:33.831Z,1.45
2023-01-22T02:57:49.202Z,1.70
2023-01-22T03:02:02.196Z,2.40
2023-01-22T03:06:16.183Z,2.35
2023-01-22T03:10:28.537Z,1.80
2023-01-22T03:14:59.951Z,1.88
2023-01-22T03:19:32.573Z,1.90
2023-01-22T03:23:47.427Z,1.80
2023-01-22T03:28:16.814Z,1.58
2023-01-22T03:32:35.014Z,2.13
2023-01-22T03:36:48.719Z,1.75
2023-01-22T03:41:21.568Z,1.60
2023-01-22T03:45:35.828Z,1.65
2023-01-22T03:49:50.106Z,1.50
2023-01-22T03:54:03.047Z,1.30
2023-01-22T03:58:15.508Z,1.38
2023-01-22T04:02:31.503Z,1.40
2023-01-22T04:06:56.932Z,1.80
2023-01-22T04:11:09.844Z,2.13
2023-01-22T04:15:22.866Z,1.40
2023-01-22T04:19:36.723Z,1.70
2023-01-22T04:23:49.021Z,1.83
2023-01-22T04:28:02.164Z,1.65
2023-01-22T04:32:19.811Z,1.70
2023-01-22T04:36:38.622Z,1.38
2023-01-22T04:40:51.842Z,1.58
2023-01-22T04:45:04.843Z,1.90
2023-01-22T04:49:17.823Z,1.63
2023-01-22T04:53:32.180Z,1.77
2023-01-22T04:57:46.637Z,2.10
2023-01-22T05:01:59.766Z,1.95
2023-01-22T05:06:14.531Z,1.67
2023-01-22T05:10:30.580Z,1.60
2023-01-22T05:14:43.306Z,1.33
2023-01-22T05:18:56.593Z,1.30
2023-01-22T05:23:13.880Z,1.30
2023-01-22T05:27:30.179Z,1.55
2023-01-22T05:31:56.319Z,1.50
2023-01-22T05:36:18.168Z,1.80
2023-01-22T05:40:30.796Z,2.28
2023-01-22T05:44:43.568Z,2.50
2023-01-22T05:48:58.404Z,2.03
2023-01-22T05:53:12.377Z,2.00
2023-01-22T05:57:24.685Z,1.95
2023-01-22T06:01:37.067Z,2.30
2023-01-22T06:05:59.965Z,2.17
2023-01-22T06:10:12.613Z,2.72
2023-01-22T06:14:30.650Z,4.38
2023-01-22T06:18:44.952Z,2.47
2023-01-22T06:22:59.824Z,2.60
2023-01-22T06:27:15.451Z,2.22
2023-01-22T06:31:41.257Z,2.22
2023-01-22T06:35:56.744Z,2.25
2023-01-22T06:40:11.805Z,2.13
2023-01-22T06:44:30.441Z,2.05
2023-01-22T06:48:44.812Z,2.40
2023-01-22T06:52:57.349Z,3.33
2023-01-22T06:57:09.755Z,5.80
2023-01-22T07:01:24.270Z,3.75
2023-01-22T07:05:36.687Z,2.85
2023-01-22T07:09:49.138Z,3.40
2023-01-22T07:14:01.450Z,3.40
2023-01-22T07:18:14.941Z,2.85
2023-01-22T07:22:27.477Z,2.45
2023-01-22T07:26:41.229Z,2.22
2023-01-22T07:30:53.677Z,2.60
2023-01-22T07:35:06.359Z,2.15
2023-01-22T07:39:19.909Z,2.50
2023-01-22T07:43:32.859Z,1.88
2023-01-22T07:48:07.962Z,2.13
2023-01-22T07:52:20.245Z,2.10
2023-01-22T07:56:32.554Z,1.90
2023-01-22T08:00:45.010Z,2.03
2023-01-22T08:04:57.460Z,1.65
2023-01-22T08:09:09.801Z,3.35
2023-01-22T08:13:25.418Z,1.75
2023-01-22T08:17:39.036Z,2.10
2023-01-22T08:21:52.594Z,1.90
2023-01-22T08:26:06.181Z,2.97
2023-01-22T08:30:19.162Z,2.65
2023-01-22T08:34:33.310Z,2.78
2023-01-22T08:38:45.842Z,2.92
2023-01-22T08:42:58.309Z,3.42
2023-01-22T08:47:11.823Z,3.40
2023-01-22T08:51:25.357Z,3.50
2023-01-22T08:55:38.106Z,2.25
2023-01-22T09:00:00.785Z,4.05
2023-01-22T09:04:13.824Z,4.07
2023-01-22T09:08:26.357Z,2.80
2023-01-22T09:12:40.091Z,3.05
2023-01-22T09:16:59.013Z,2.55
2023-01-22T09:21:12.091Z,2.10
2023-01-22T09:25:27.404Z,1.90
2023-01-22T09:29:41.691Z,1.63
2023-01-22T09:33:55.883Z,1.98
2023-01-22T09:38:12.863Z,1.63
2023-01-22T09:42:32.433Z,1.45
2023-01-22T09:46:59.433Z,1.88
2023-01-22T09:51:16.961Z,2.17
2023-01-22T09:55:32.609Z,1.80
2023-01-22T09:59:51.334Z,1.60
2023-01-22T10:04:08.112Z,1.52
2023-01-22T10:08:23.959Z,2.00
2023-01-22T10:12:36.411Z,1.80
2023-01-22T10:16:49.429Z,2.10
2023-01-22T10:21:07.319Z,1.60
2023-01-22T10:25:19.727Z,1.60
2023-01-22T10:29:34.700Z,1.60
2023-01-22T10:33:47.222Z,1.33
2023-01-22T10:38:01.246Z,1.30
2023-01-22T10:42:18.850Z,1.38
2023-01-22T10:46:31.402Z,1.20
2023-01-22T10:50:45.423Z,1.60
2023-01-22T10:55:01.051Z,17.55
2023-01-22T10:59:23.334Z,7.15
2023-01-22T11:03:40.019Z,1.40
2023-01-22T11:08:06.252Z,1.55
2023-01-22T11:12:30.331Z,2.05
2023-01-22T11:16:45.944Z,1.27
2023-01-22T11:21:01.001Z,1.98
2023-01-22T11:25:13.594Z,1.98
2023-01-22T11:30:06.312Z,1.98
2023-01-22T11:34:33.718Z,2.35
2023-01-22T11:39:38.718Z,2.55
2023-01-22T11:44:15.320Z,2.22
2023-01-22T11:48:45.228Z,1.98
2023-01-22T11:53:26.814Z,1.73
2023-01-22T11:57:46.755Z,1.80
2023-01-22T12:06:46.441Z,2.67
2023-01-22T12:11:37.441Z,1.70
2023-01-22T12:15:58.982Z,1.67
2023-01-22T12:20:34.391Z,2.08
2023-01-22T12:25:10.826Z,4.80
2023-01-22T12:29:29.902Z,4.43
2023-01-22T12:33:44.505Z,3.93
2023-01-22T12:38:19.497Z,3.22
2023-01-22T12:42:41.020Z,4.05
2023-01-22T12:47:09.798Z,5.38
2023-01-22T12:51:47.347Z,5.28
2023-01-22T12:56:02.836Z,5.95
2023-01-22T13:00:35.654Z,4.95
2023-01-22T13:04:48.166Z,3.38
2023-01-22T13:09:01.001Z,4.95
2023-01-22T13:13:13.282Z,9.95
2023-01-22T13:17:30.756Z,10.77
2023-01-22T13:21:44.102Z,6.72
2023-01-22T13:25:57.899Z,6.43
2023-01-22T13:30:23.708Z,6.00
2023-01-22T13:34:36.171Z,7.55
2023-01-22T13:38:53.802Z,8.88
2023-01-22T13:43:07.823Z,8.20
2023-01-22T13:47:35.118Z,8.95
2023-01-22T13:51:50.698Z,9.85
2023-01-22T13:56:03.309Z,11.50
2023-01-22T14:00:30.809Z,14.77
2023-01-22T14:04:43.175Z,18.48
2023-01-22T14:08:57.823Z,16.17
2023-01-22T14:13:12.543Z,13.27
2023-01-22T14:17:30.685Z,13.10
2023-01-22T14:21:43.295Z,14.50
2023-01-22T14:25:56.957Z,14.40
2023-01-22T14:30:11.178Z,14.50
2023-01-22T14:34:23.568Z,16.58
2023-01-22T14:38:35.977Z,18.65
2023-01-22T14:42:48.771Z,17.00
2023-01-22T14:47:01.217Z,12.98
2023-01-22T14:51:13.825Z,14.35
2023-01-22T14:55:26.348Z,13.45
2023-01-22T14:59:38.676Z,9.90
2023-01-22T15:03:51.201Z,7.25
2023-01-22T15:08:03.957Z,7.82
2023-01-22T15:12:16.308Z,8.07
2023-01-22T15:16:29.054Z,8.13
2023-01-22T15:20:41.483Z,6.32
2023-01-22T15:24:53.974Z,7.40
2023-01-22T15:29:09.442Z,7.18
2023-01-22T15:33:21.855Z,7.82
2023-01-22T15:37:34.412Z,7.82
2023-01-22T15:41:47.472Z,9.50
2023-01-22T15:46:00.017Z,9.63
2023-01-22T15:50:14.349Z,9.90
2023-01-22T15:54:27.284Z,11.20
2023-01-22T15:58:39.721Z,12.27
2023-01-22T16:02:52.099Z,13.10
2023-01-22T16:07:04.684Z,17.63
2023-01-22T16:11:17.678Z,16.70
2023-01-22T16:15:29.999Z,19.05
2023-01-22T16:19:42.815Z,17.98
2023-01-22T16:23:57.701Z,18.42
2023-01-22T16:28:10.313Z,21.30
2023-01-22T16:32:23.794Z,21.90
2023-01-22T16:36:37.035Z,21.35
2023-01-22T16:40:50.402Z,20.35
2023-01-22T16:45:03.165Z,21.45
2023-01-22T16:49:21.670Z,20.00
2023-01-22T16:53:35.771Z,14.70
2023-01-22T16:57:51.419Z,15.68
2023-01-22T17:02:07.888Z,18.65
2023-01-22T17:06:44.714Z,24.83
2023-01-22T17:10:57.226Z,34.90
2023-01-22T17:15:10.158Z,41.22
2023-01-22T17:19:23.231Z,34.30
2023-01-22T17:23:35.603Z,27.80
2023-01-22T17:27:47.913Z,23.40
2023-01-22T17:32:00.517Z,22.98
2023-01-22T17:36:15.289Z,22.85
2023-01-22T17:40:27.885Z,22.10
2023-01-22T17:44:46.412Z,21.58
2023-01-22T17:49:01.319Z,23.92
2023-01-22T17:53:13.719Z,22.20
2023-01-22T17:57:26.205Z,22.17
2023-01-22T18:01:39.615Z,21.73
2023-01-22T18:05:54.895Z,21.08
2023-01-22T18:10:07.442Z,19.60
2023-01-22T18:14:23.079Z,20.20
2023-01-22T18:18:35.852Z,21.55
2023-01-22T18:22:49.296Z,22.60
2023-01-22T18:27:02.528Z,21.40
2023-01-22T18:31:17.041Z,29.45
2023-01-22T18:35:29.857Z,32.42
2023-01-22T18:39:42.424Z,24.10
2023-01-22T18:43:57.287Z,23.92
2023-01-22T18:48:13.085Z,29.38
2023-01-22T18:52:27.507Z,31.33
2023-01-22T18:56:40.271Z,32.10
2023-01-22T19:00:52.675Z,29.65
2023-01-22T19:05:07.736Z,30.75
2023-01-22T19:09:21.130Z,31.10
2023-01-22T19:13:39.788Z,29.85
2023-01-22T19:17:52.179Z,28.65
2023-01-22T19:22:04.668Z,29.65
2023-01-22T19:26:28.930Z,24.92
2023-01-22T19:30:41.378Z,23.52
2023-01-22T19:34:57.915Z,25.73
2023-01-22T19:39:13.264Z,29.17
2023-01-22T19:43:26.487Z,26.95
2023-01-22T19:47:39.184Z,30.85
2023-01-22T19:51:51.581Z,32.83
2023-01-22T19:56:05.823Z,33.05
2023-01-22T20:00:20.085Z,33.78
2023-01-22T20:04:36.184Z,22.35
2023-01-22T20:08:53.602Z,7.22
2023-01-22T20:13:09.890Z,4.00
2023-01-22T20:17:22.346Z,1.50
2023-01-22T20:21:35.714Z,2.15
2023-01-22T20:25:49.005Z,2.00
2023-01-22T20:30:02.616Z,1.70
2023-01-22T20:34:15.138Z,1.20
2023-01-22T20:38:29.070Z,1.30
2023-01-22T20:42:41.492Z,1.60
2023-01-22T20:46:54.481Z,1.63
2023-01-22T20:51:15.337Z,2.08
2023-01-22T20:55:28.408Z,1.58
2023-01-22T20:59:40.786Z,1.70
2023-01-22T21:03:54.084Z,1.60
2023-01-22T21:08:07.119Z,1.55
2023-01-22T21:12:19.911Z,1.00
2023-01-22T21:16:36.266Z,1.38
2023-01-22T21:20:49.234Z,1.15
2023-01-22T21:25:02.132Z,1.10
2023-01-22T21:29:17.420Z,1.20
2023-01-22T21:33:29.891Z,1.10
2023-01-22T21:37:42.428Z,1.65
2023-01-22T21:42:14.308Z,1.10
2023-01-22T21:46:28.385Z,1.65
2023-01-22T21:50:42.358Z,2.10
2023-01-22T21:54:54.824Z,2.20
2023-01-22T21:59:07.290Z,2.70
2023-01-22T22:03:19.679Z,3.20
2023-01-22T22:07:32.142Z,1.20
2023-01-22T22:11:45.473Z,1.00
2023-01-22T22:16:05.424Z,1.00
2023-01-22T22:24:30.742Z,1.02
2023-01-22T22:28:43.260Z,0.90
2023-01-22T22:32:55.770Z,1.10
2023-01-22T22:37:08.206Z,0.90
2023-01-22T22:41:26.407Z,0.95
2023-01-22T22:45:39.164Z,0.98
2023-01-22T22:49:51.573Z,0.82
2023-01-22T22:54:12.838Z,0.90
2023-01-22T22:58:25.185Z,0.65
2023-01-22T23:02:37.811Z,0.68
2023-01-22T23:06:50.245Z,0.88
2023-01-22T23:11:04.761Z,0.85
2023-01-22T23:15:17.198Z,1.17
2023-01-22T23:19:29.620Z,0.85
2023-01-22T23:23:42.943Z,0.95
2023-01-22T23:27:56.063Z,0.90
2023-01-22T23:32:08.456Z,1.00
2023-01-22T23:36:21.430Z,0.68
2023-01-22T23:40:37.153Z,0.50
2023-01-22T23:44:51.809Z,0.77
2023-01-22T23:49:05.494Z,0.40
2023-01-22T23:53:18.181Z,0.40
2023-01-22T23:57:30.636Z,0.47
